createdAt,value
2018-08-31T00:01:17.269Z,13.40
2018-08-31T00:07:03.141Z,13.40
2018-08-31T00:09:41.502Z,13.30
2018-08-31T00:12:26.093Z,13.30
2018-08-31T00:14:54.590Z,13.30
2018-08-31T00:17:23.120Z,13.30
2018-08-31T00:19:51.640Z,13.20
2018-08-31T00:22:20.168Z,13.30
2018-08-31T00:25:59.476Z,13.20
2018-08-31T00:28:39.125Z,13.20
2018-08-31T00:33:38.092Z,13.20
2018-08-31T00:40:24.836Z,13.20
2018-08-31T00:43:04.564Z,13.10
2018-08-31T00:45:35.131Z,13.00
2018-08-31T00:48:04.247Z,13.00
2018-08-31T00:50:33.074Z,12.90
2018-08-31T00:53:02.277Z,12.90
2018-08-31T00:55:30.987Z,12.90
2018-08-31T00:57:59.557Z,12.90
2018-08-31T01:00:28.055Z,13.00
2018-08-31T01:02:56.540Z,12.90
2018-08-31T01:05:25.112Z,12.90
2018-08-31T01:07:53.602Z,12.90
2018-08-31T01:10:23.246Z,13.00
2018-08-31T01:12:52.331Z,12.90
2018-08-31T01:15:20.939Z,12.90
2018-08-31T01:17:49.738Z,12.90
2018-08-31T01:20:18.235Z,12.90
2018-08-31T01:22:46.943Z,12.80
2018-08-31T01:25:15.989Z,12.80
2018-08-31T01:27:44.453Z,12.80
2018-08-31T01:30:13.369Z,12.80
2018-08-31T01:32:43.014Z,12.70
2018-08-31T01:35:12.085Z,12.70
2018-08-31T01:37:40.563Z,12.70
2018-08-31T01:40:09.140Z,12.60
2018-08-31T01:42:37.581Z,12.60
2018-08-31T01:45:06.100Z,12.60
2018-08-31T01:47:34.698Z,12.60
2018-08-31T01:50:03.186Z,12.60
2018-08-31T01:52:31.697Z,12.50
2018-08-31T01:55:00.150Z,12.50
2018-08-31T01:57:28.667Z,12.50
2018-08-31T01:59:57.143Z,12.40
2018-08-31T02:02:25.684Z,12.50
2018-08-31T02:04:54.789Z,12.40
2018-08-31T02:07:23.259Z,12.40
2018-08-31T02:09:51.753Z,12.40
2018-08-31T02:12:20.245Z,12.40
2018-08-31T02:14:48.706Z,12.30
2018-08-31T02:17:17.201Z,12.30
2018-08-31T02:19:45.668Z,12.30
2018-08-31T02:22:14.500Z,12.30
2018-08-31T02:24:42.970Z,12.30
2018-08-31T02:27:11.485Z,12.20
2018-08-31T02:29:40.016Z,12.30
2018-08-31T02:32:08.514Z,12.20
2018-08-31T02:34:36.969Z,12.20
2018-08-31T02:37:05.518Z,12.20
2018-08-31T02:39:33.951Z,12.20
2018-08-31T02:42:02.500Z,12.20
2018-08-31T02:44:30.963Z,12.10
2018-08-31T02:46:59.429Z,12.10
2018-08-31T02:49:27.933Z,12.20
2018-08-31T02:51:56.398Z,12.20
2018-08-31T02:54:24.951Z,12.10
2018-08-31T02:56:53.438Z,12.10
2018-08-31T02:59:22.030Z,12.10
2018-08-31T03:01:50.478Z,12.10
2018-08-31T03:04:19.371Z,12.10
2018-08-31T03:06:47.903Z,12.10
2018-08-31T03:09:16.384Z,12.00
2018-08-31T03:11:45.006Z,12.00
2018-08-31T03:14:13.415Z,12.00
2018-08-31T03:16:41.897Z,12.00
2018-08-31T03:19:10.402Z,12.00
2018-08-31T03:21:38.874Z,12.00
2018-08-31T03:24:07.314Z,12.00
2018-08-31T03:26:35.761Z,12.00
2018-08-31T03:29:04.297Z,11.90
2018-08-31T03:31:32.799Z,11.90
2018-08-31T03:34:01.360Z,11.90
2018-08-31T03:36:29.897Z,11.90
2018-08-31T03:38:58.406Z,11.90
2018-08-31T03:41:26.971Z,11.80
2018-08-31T03:43:55.580Z,11.80
2018-08-31T03:46:24.054Z,11.80
2018-08-31T03:48:52.599Z,11.80
2018-08-31T03:51:21.195Z,11.70
2018-08-31T03:53:49.731Z,11.70
2018-08-31T03:56:18.192Z,11.70
2018-08-31T03:58:46.907Z,11.70
2018-08-31T04:01:15.418Z,11.70
2018-08-31T04:03:43.843Z,11.70
2018-08-31T04:06:12.448Z,11.70
2018-08-31T04:08:40.896Z,11.70
2018-08-31T04:11:09.400Z,11.70
2018-08-31T04:13:37.891Z,11.70
2018-08-31T04:16:06.418Z,11.70
2018-08-31T04:18:34.890Z,11.70
2018-08-31T04:21:03.387Z,11.60
2018-08-31T04:23:31.832Z,11.60
2018-08-31T04:26:00.336Z,11.60
2018-08-31T04:28:28.879Z,11.60
2018-08-31T04:30:57.494Z,11.60
2018-08-31T04:33:26.078Z,11.50
2018-08-31T04:35:54.591Z,11.50
2018-08-31T04:38:23.230Z,11.50
2018-08-31T04:40:51.735Z,11.40
2018-08-31T04:43:20.249Z,11.40
2018-08-31T04:45:48.738Z,11.40
2018-08-31T04:48:17.283Z,11.40
2018-08-31T04:50:45.756Z,11.40
2018-08-31T04:53:14.240Z,11.40
2018-08-31T04:55:42.775Z,11.40
2018-08-31T04:58:11.215Z,11.40
2018-08-31T05:00:39.710Z,11.40
2018-08-31T05:03:08.240Z,11.50
2018-08-31T05:05:36.701Z,11.50
2018-08-31T05:08:05.232Z,11.50
2018-08-31T05:10:33.735Z,11.50
2018-08-31T05:13:02.268Z,11.50
2018-08-31T05:15:30.762Z,11.50
2018-08-31T05:17:59.270Z,11.50
2018-08-31T05:20:27.736Z,11.50
2018-08-31T05:22:56.227Z,11.60
2018-08-31T05:25:24.764Z,11.60
2018-08-31T05:27:53.266Z,11.70
2018-08-31T05:30:21.800Z,11.70
2018-08-31T05:32:50.265Z,11.80
2018-08-31T05:35:18.774Z,11.80
2018-08-31T05:37:47.240Z,11.80
2018-08-31T05:40:15.890Z,11.90
2018-08-31T05:42:44.356Z,11.90
2018-08-31T05:45:12.848Z,12.00
2018-08-31T05:47:41.287Z,12.00
2018-08-31T05:50:09.796Z,12.10
2018-08-31T05:52:38.269Z,12.10
2018-08-31T05:55:06.810Z,12.20
2018-08-31T05:57:35.249Z,12.20
2018-08-31T06:00:05.082Z,12.30
2018-08-31T06:02:33.562Z,12.40
2018-08-31T06:05:02.050Z,12.40
2018-08-31T06:07:30.471Z,12.50
2018-08-31T06:09:58.973Z,12.60
2018-08-31T06:12:27.407Z,12.60
2018-08-31T06:14:55.916Z,12.70
2018-08-31T06:17:24.357Z,12.80
2018-08-31T06:19:52.860Z,12.90
2018-08-31T06:22:21.353Z,13.00
2018-08-31T06:24:50.003Z,13.10
2018-08-31T06:27:18.526Z,13.20
2018-08-31T06:29:46.968Z,13.30
2018-08-31T06:32:15.446Z,13.40
2018-08-31T06:34:43.941Z,13.40
2018-08-31T06:37:12.467Z,13.50
2018-08-31T06:39:40.952Z,13.60
2018-08-31T06:42:09.453Z,13.70
2018-08-31T06:44:37.864Z,13.70
2018-08-31T06:47:06.542Z,13.80
2018-08-31T06:49:34.981Z,13.90
2018-08-31T06:52:03.495Z,14.00
2018-08-31T06:54:32.035Z,14.00
2018-08-31T06:57:00.527Z,14.10
2018-08-31T06:59:29.114Z,14.10
2018-08-31T07:01:57.589Z,14.20
2018-08-31T07:04:26.131Z,14.20
2018-08-31T07:06:54.608Z,14.30
2018-08-31T07:09:23.083Z,14.40
2018-08-31T07:11:51.540Z,14.40
2018-08-31T07:14:19.999Z,14.40
2018-08-31T07:16:48.480Z,14.50
2018-08-31T07:19:16.972Z,14.50
2018-08-31T07:21:45.506Z,14.60
2018-08-31T07:24:13.937Z,14.60
2018-08-31T07:26:42.375Z,14.70
2018-08-31T07:29:10.860Z,14.70
2018-08-31T07:31:39.313Z,14.80
2018-08-31T07:34:07.773Z,14.90
2018-08-31T07:36:36.243Z,14.90
2018-08-31T07:39:06.647Z,15.00
2018-08-31T07:41:35.123Z,15.10
2018-08-31T07:44:03.609Z,15.20
2018-08-31T07:46:32.094Z,15.20
2018-08-31T07:49:00.599Z,15.30
2018-08-31T07:51:29.187Z,15.30
2018-08-31T07:53:57.697Z,15.40
2018-08-31T07:56:26.197Z,15.40
2018-08-31T07:58:54.675Z,15.50
2018-08-31T08:01:23.137Z,15.50
2018-08-31T08:03:51.662Z,15.60
2018-08-31T08:06:20.191Z,15.60
2018-08-31T08:08:48.697Z,15.70
2018-08-31T08:11:17.137Z,15.80
2018-08-31T08:13:45.634Z,15.80
2018-08-31T08:16:14.123Z,15.90
2018-08-31T08:18:42.592Z,16.00
2018-08-31T08:21:11.087Z,16.00
2018-08-31T08:23:39.602Z,16.10
2018-08-31T08:26:08.051Z,16.10
2018-08-31T08:28:36.545Z,16.20
2018-08-31T08:31:05.350Z,16.20
2018-08-31T08:33:33.924Z,16.30
2018-08-31T08:36:02.513Z,16.30
2018-08-31T08:38:30.974Z,16.40
2018-08-31T08:40:59.519Z,16.50
2018-08-31T08:43:28.054Z,16.50
2018-08-31T08:45:56.592Z,16.60
2018-08-31T08:48:25.607Z,16.70
2018-08-31T08:50:54.014Z,16.70
2018-08-31T08:53:22.503Z,16.80
2018-08-31T08:55:51.022Z,16.80
2018-08-31T08:58:19.625Z,16.80
2018-08-31T09:00:48.082Z,16.90
2018-08-31T09:03:16.523Z,16.90
2018-08-31T09:05:45.086Z,17.00
2018-08-31T09:08:13.582Z,17.10
2018-08-31T09:10:42.080Z,17.10
2018-08-31T09:13:10.650Z,17.20
2018-08-31T09:15:39.163Z,17.20
2018-08-31T09:18:07.631Z,17.30
2018-08-31T09:20:36.242Z,17.40
2018-08-31T09:23:04.743Z,17.50
2018-08-31T09:25:33.310Z,17.50
2018-08-31T09:28:01.814Z,17.60
2018-08-31T09:30:36.334Z,17.70
2018-08-31T09:33:04.988Z,17.70
2018-08-31T09:35:33.480Z,17.70
2018-08-31T09:38:01.985Z,17.80
2018-08-31T09:40:30.507Z,17.90
2018-08-31T09:42:59.012Z,17.90
2018-08-31T09:45:27.537Z,17.90
2018-08-31T09:47:56.019Z,17.90
2018-08-31T09:50:24.495Z,17.90
2018-08-31T09:52:52.953Z,17.90
2018-08-31T09:55:21.468Z,18.00
2018-08-31T09:57:50.018Z,18.10
2018-08-31T10:00:22.726Z,18.20
2018-08-31T10:02:56.530Z,18.20
2018-08-31T10:05:24.980Z,18.30
2018-08-31T10:07:53.498Z,18.30
2018-08-31T10:10:21.939Z,18.30
2018-08-31T10:12:50.458Z,18.40
2018-08-31T10:15:18.956Z,18.30
2018-08-31T10:17:47.667Z,18.40
2018-08-31T10:20:16.166Z,18.30
2018-08-31T10:22:44.718Z,18.30
2018-08-31T10:25:13.278Z,18.30
2018-08-31T10:27:41.786Z,18.40
2018-08-31T10:30:10.360Z,18.40
2018-08-31T10:32:55.290Z,18.50
2018-08-31T10:35:23.728Z,18.50
2018-08-31T10:37:52.228Z,18.70
2018-08-31T10:40:20.817Z,18.80
2018-08-31T10:42:49.389Z,18.80
2018-08-31T10:45:17.851Z,18.80
2018-08-31T10:47:46.330Z,18.70
2018-08-31T10:50:14.871Z,18.80
2018-08-31T10:52:43.349Z,18.90
2018-08-31T10:55:11.838Z,18.90
2018-08-31T10:57:40.320Z,18.90
2018-08-31T11:00:08.888Z,19.00
2018-08-31T11:02:37.363Z,19.10
2018-08-31T11:05:05.859Z,19.10
2018-08-31T11:07:34.312Z,19.20
2018-08-31T11:10:02.837Z,19.20
2018-08-31T11:12:31.327Z,19.30
2018-08-31T11:14:59.839Z,19.40
2018-08-31T11:17:28.349Z,19.40
2018-08-31T11:19:56.846Z,19.50
2018-08-31T11:22:25.309Z,19.50
2018-08-31T11:24:53.781Z,19.60
2018-08-31T11:27:22.226Z,19.70
2018-08-31T11:29:50.842Z,19.70
2018-08-31T11:32:19.523Z,19.80
2018-08-31T11:34:48.115Z,20.00
2018-08-31T11:37:16.643Z,20.00
2018-08-31T11:39:45.099Z,20.10
2018-08-31T11:42:13.579Z,20.10
2018-08-31T11:44:42.008Z,20.10
2018-08-31T11:47:10.822Z,20.10
2018-08-31T11:49:39.293Z,20.00
2018-08-31T11:52:07.773Z,20.00
2018-08-31T11:54:36.252Z,20.00
2018-08-31T11:57:04.755Z,20.10
2018-08-31T11:59:33.237Z,20.20
2018-08-31T12:02:01.757Z,20.20
2018-08-31T12:04:30.195Z,20.30
2018-08-31T12:06:58.712Z,20.30
2018-08-31T12:09:27.150Z,20.30
2018-08-31T12:11:55.640Z,20.30
2018-08-31T12:14:24.078Z,20.40
2018-08-31T12:16:52.539Z,20.40
2018-08-31T12:19:21.073Z,20.40
2018-08-31T12:21:49.517Z,20.30
2018-08-31T12:24:17.995Z,20.30
2018-08-31T12:26:46.568Z,20.20
2018-08-31T12:29:15.032Z,20.20
2018-08-31T12:31:43.528Z,20.10
2018-08-31T12:34:12.002Z,20.10
2018-08-31T12:36:40.442Z,20.10
2018-08-31T12:39:10.133Z,20.10
2018-08-31T12:41:38.624Z,20.10
2018-08-31T12:44:07.086Z,20.10
2018-08-31T12:46:35.503Z,20.10
2018-08-31T12:49:04.146Z,20.20
2018-08-31T12:51:32.593Z,20.20
2018-08-31T12:54:01.091Z,20.20
2018-08-31T12:56:29.828Z,20.20
2018-08-31T12:58:58.282Z,20.30
2018-08-31T13:01:26.745Z,20.30
2018-08-31T13:03:55.802Z,20.40
2018-08-31T13:06:24.288Z,20.50
2018-08-31T13:08:52.781Z,20.50
2018-08-31T13:11:21.270Z,20.50
2018-08-31T13:13:49.756Z,20.50
2018-08-31T13:16:18.403Z,20.50
2018-08-31T13:18:47.121Z,20.60
2018-08-31T13:21:15.616Z,20.60
2018-08-31T13:23:44.062Z,20.60
2018-08-31T13:26:12.556Z,20.60
2018-08-31T13:28:41.102Z,20.60
2018-08-31T13:31:09.761Z,20.70
2018-08-31T13:33:38.474Z,20.70
2018-08-31T13:36:07.036Z,20.70
2018-08-31T13:38:35.586Z,20.60
2018-08-31T13:41:04.105Z,20.60
2018-08-31T13:43:32.571Z,20.40
2018-08-31T13:46:01.081Z,20.40
2018-08-31T13:48:29.773Z,20.40
2018-08-31T13:50:58.247Z,20.50
2018-08-31T13:53:26.793Z,20.50
2018-08-31T13:55:55.246Z,20.50
2018-08-31T13:58:24.151Z,20.50
2018-08-31T14:00:52.555Z,20.50
2018-08-31T14:03:21.057Z,20.40
2018-08-31T14:05:49.657Z,20.30
2018-08-31T14:08:18.361Z,20.30
2018-08-31T14:10:46.848Z,20.20
2018-08-31T14:13:15.351Z,20.20
2018-08-31T14:15:43.781Z,20.20
2018-08-31T14:18:12.271Z,20.20
2018-08-31T14:20:40.747Z,20.30
2018-08-31T14:23:09.344Z,20.30
2018-08-31T14:25:37.947Z,20.30
2018-08-31T14:28:06.563Z,20.30
2018-08-31T14:30:35.045Z,20.20
2018-08-31T14:33:03.691Z,20.30
2018-08-31T14:35:32.151Z,20.30
2018-08-31T14:38:00.741Z,20.40
2018-08-31T14:40:29.246Z,20.40
2018-08-31T14:42:57.743Z,20.50
2018-08-31T14:45:26.331Z,20.50
2018-08-31T14:47:54.862Z,20.50
2018-08-31T14:50:23.337Z,20.50
2018-08-31T14:52:51.835Z,20.40
2018-08-31T14:55:20.493Z,20.40
2018-08-31T14:57:48.961Z,20.30
2018-08-31T15:00:17.929Z,20.30
2018-08-31T15:02:46.432Z,20.20
2018-08-31T15:05:14.915Z,20.20
2018-08-31T15:07:43.459Z,20.10
2018-08-31T15:10:13.811Z,20.00
2018-08-31T15:12:42.635Z,20.00
2018-08-31T15:15:11.090Z,19.90
2018-08-31T15:17:39.648Z,19.90
2018-08-31T15:20:08.195Z,19.80
2018-08-31T15:22:36.680Z,19.80
2018-08-31T15:25:05.319Z,19.70
2018-08-31T15:27:33.796Z,19.70
2018-08-31T15:30:02.457Z,19.70
2018-08-31T15:32:30.949Z,19.70
2018-08-31T15:34:59.436Z,19.60
2018-08-31T15:37:27.976Z,19.60
2018-08-31T15:39:56.478Z,19.50
2018-08-31T15:42:24.975Z,19.50
2018-08-31T15:44:53.480Z,19.50
2018-08-31T15:47:21.912Z,19.50
2018-08-31T15:49:50.498Z,19.40
2018-08-31T15:52:18.927Z,19.40
2018-08-31T15:54:47.399Z,19.40
2018-08-31T15:57:15.826Z,19.30
2018-08-31T15:59:44.288Z,19.30
2018-08-31T16:02:12.768Z,19.30
2018-08-31T16:04:41.214Z,19.20
2018-08-31T16:07:09.703Z,19.20
2018-08-31T16:09:38.153Z,19.20
2018-08-31T16:12:07.359Z,19.10
2018-08-31T16:14:35.792Z,19.10
2018-08-31T16:17:04.264Z,19.10
2018-08-31T16:19:32.729Z,19.10
2018-08-31T16:22:01.326Z,19.10
2018-08-31T16:24:29.739Z,19.00
2018-08-31T16:26:58.196Z,19.00
2018-08-31T16:29:26.670Z,19.00
2018-08-31T16:31:55.125Z,19.00
2018-08-31T16:34:23.576Z,19.10
2018-08-31T16:36:52.526Z,19.00
2018-08-31T16:39:21.088Z,19.10
2018-08-31T16:41:49.565Z,19.00
2018-08-31T16:44:17.987Z,19.00
2018-08-31T16:46:46.867Z,19.00
2018-08-31T16:49:15.290Z,19.00
2018-08-31T16:51:43.779Z,19.00
2018-08-31T16:54:12.233Z,19.00
2018-08-31T16:56:40.701Z,18.90
2018-08-31T16:59:09.228Z,18.90
2018-08-31T17:01:37.685Z,18.90
2018-08-31T17:04:06.222Z,18.90
2018-08-31T17:06:34.687Z,18.90
2018-08-31T17:09:03.290Z,18.90
2018-08-31T17:11:32.170Z,18.80
2018-08-31T17:14:00.681Z,18.80
2018-08-31T17:16:29.126Z,18.80
2018-08-31T17:18:57.658Z,18.80
2018-08-31T17:21:26.095Z,18.80
2018-08-31T17:23:54.632Z,18.70
2018-08-31T17:26:28.437Z,18.70
2018-08-31T17:29:02.391Z,18.60
2018-08-31T17:31:36.394Z,18.60
2018-08-31T17:34:18.821Z,18.50
2018-08-31T17:36:52.738Z,18.50
2018-08-31T17:39:21.235Z,18.40
2018-08-31T17:41:49.797Z,18.30
2018-08-31T17:44:18.365Z,18.30
2018-08-31T17:46:46.794Z,18.20
2018-08-31T17:49:15.334Z,18.10
2018-08-31T17:51:43.776Z,18.00
2018-08-31T17:54:12.259Z,18.00
2018-08-31T17:56:40.713Z,17.90
2018-08-31T17:59:09.287Z,17.80
2018-08-31T18:01:37.757Z,17.80
2018-08-31T18:04:06.303Z,17.70
2018-08-31T18:06:34.732Z,17.60
2018-08-31T18:09:03.324Z,17.60
2018-08-31T18:11:31.801Z,17.50
2018-08-31T18:14:00.294Z,17.40
2018-08-31T18:16:29.054Z,17.40
2018-08-31T18:18:57.319Z,17.30
2018-08-31T18:21:25.801Z,17.20
2018-08-31T18:23:54.286Z,17.20
2018-08-31T18:26:22.771Z,17.10
2018-08-31T18:28:51.338Z,17.00
2018-08-31T18:31:19.946Z,17.00
2018-08-31T18:33:48.453Z,16.90
2018-08-31T18:36:16.926Z,16.80
2018-08-31T18:38:45.426Z,16.80
2018-08-31T18:41:13.929Z,16.70
2018-08-31T18:43:42.500Z,16.70
2018-08-31T18:46:11.053Z,16.60
2018-08-31T18:48:39.613Z,16.60
2018-08-31T18:51:08.100Z,16.50
2018-08-31T18:53:36.607Z,16.50
2018-08-31T18:56:05.084Z,16.50
2018-08-31T18:58:33.614Z,16.40
2018-08-31T19:01:02.087Z,16.40
2018-08-31T19:03:30.568Z,16.30
2018-08-31T19:05:59.040Z,16.20
2018-08-31T19:08:27.507Z,16.20
2018-08-31T19:10:55.987Z,16.20
2018-08-31T19:13:24.455Z,16.20
2018-08-31T19:15:53.263Z,16.10
2018-08-31T19:18:21.743Z,16.10
2018-08-31T19:20:50.221Z,16.00
2018-08-31T19:23:18.752Z,16.00
2018-08-31T19:25:47.322Z,16.00
2018-08-31T19:28:15.783Z,15.90
2018-08-31T19:30:44.405Z,15.90
2018-08-31T19:33:13.049Z,15.90
2018-08-31T19:35:41.534Z,15.80
2018-08-31T19:38:10.033Z,15.80
2018-08-31T19:40:38.518Z,15.80
2018-08-31T19:43:07.067Z,15.70
2018-08-31T19:45:35.532Z,15.70
2018-08-31T19:48:04.059Z,15.70
2018-08-31T19:50:32.570Z,15.70
2018-08-31T19:53:01.032Z,15.70
2018-08-31T19:55:29.520Z,15.60
2018-08-31T19:57:58.006Z,15.60
2018-08-31T20:00:26.499Z,15.60
2018-08-31T20:02:54.959Z,15.50
2018-08-31T20:05:23.425Z,15.50
2018-08-31T20:07:51.900Z,15.50
2018-08-31T20:10:20.425Z,15.50
2018-08-31T20:12:48.879Z,15.50
2018-08-31T20:15:17.401Z,15.50
2018-08-31T20:17:46.573Z,15.50
2018-08-31T20:20:15.157Z,15.50
2018-08-31T20:22:44.187Z,15.50
2018-08-31T20:25:12.674Z,15.50
2018-08-31T20:27:41.307Z,15.50
2018-08-31T20:30:10.639Z,15.50
2018-08-31T20:32:39.183Z,15.50
2018-08-31T20:35:07.803Z,15.50
2018-08-31T20:37:36.278Z,15.50
2018-08-31T20:40:04.982Z,15.50
2018-08-31T20:42:33.430Z,15.50
2018-08-31T20:45:01.980Z,15.50
2018-08-31T20:47:30.436Z,15.50
2018-08-31T20:49:58.943Z,15.50
2018-08-31T20:52:27.447Z,15.50
2018-08-31T20:54:56.612Z,15.60
2018-08-31T20:57:25.193Z,15.60
2018-08-31T20:59:53.660Z,15.50
2018-08-31T21:02:22.187Z,15.50
2018-08-31T21:04:50.696Z,15.50
2018-08-31T21:07:19.164Z,15.50
2018-08-31T21:09:47.611Z,15.50
2018-08-31T21:12:16.166Z,15.50
2018-08-31T21:14:44.641Z,15.40
2018-08-31T21:17:13.081Z,15.50
2018-08-31T21:19:41.550Z,15.50
2018-08-31T21:22:10.067Z,15.50
2018-08-31T21:24:38.522Z,15.40
2018-08-31T21:27:07.340Z,15.40
2018-08-31T21:29:35.792Z,15.40
2018-08-31T21:32:04.434Z,15.40
2018-08-31T21:34:32.984Z,15.30
2018-08-31T21:37:01.555Z,15.30
2018-08-31T21:39:30.096Z,15.20
2018-08-31T21:41:58.586Z,15.20
2018-08-31T21:44:27.090Z,15.10
2018-08-31T21:46:55.924Z,15.10
2018-08-31T21:49:25.097Z,15.10
2018-08-31T21:51:53.595Z,15.00
2018-08-31T21:54:22.106Z,15.00
2018-08-31T21:56:50.600Z,15.00
2018-08-31T21:59:19.142Z,14.90
2018-08-31T22:01:53.583Z,14.90
2018-08-31T22:04:23.088Z,14.90
2018-08-31T22:06:52.520Z,14.80
2018-08-31T22:09:21.431Z,14.80
2018-08-31T22:11:50.023Z,14.80
2018-08-31T22:14:18.746Z,14.70
2018-08-31T22:16:47.513Z,14.70
2018-08-31T22:19:17.745Z,14.70
2018-08-31T22:21:46.306Z,14.70
2018-08-31T22:24:16.991Z,14.70
2018-08-31T22:26:46.431Z,14.60
2018-08-31T22:29:16.480Z,14.60
2018-08-31T22:31:45.551Z,14.60
2018-08-31T22:34:14.234Z,14.60
2018-08-31T22:36:42.758Z,14.60
2018-08-31T22:39:11.500Z,14.50
2018-08-31T22:41:40.976Z,14.50
2018-08-31T22:44:09.491Z,14.50
2018-08-31T22:46:38.999Z,14.40
2018-08-31T22:49:07.656Z,14.40
2018-08-31T22:51:36.225Z,14.40
2018-08-31T22:54:04.943Z,14.40
2018-08-31T22:56:33.410Z,14.40
2018-08-31T22:59:02.398Z,14.40
2018-08-31T23:01:30.957Z,14.30
2018-08-31T23:03:59.543Z,14.30
2018-08-31T23:06:27.996Z,14.30
2018-08-31T23:08:56.504Z,14.30
2018-08-31T23:11:25.162Z,14.30
2018-08-31T23:13:54.057Z,14.20
2018-08-31T23:16:23.107Z,14.20
2018-08-31T23:18:51.741Z,14.10
2018-08-31T23:21:20.339Z,14.10
2018-08-31T23:23:49.599Z,14.10
2018-08-31T23:26:18.958Z,14.00
2018-08-31T23:28:47.619Z,14.00
2018-08-31T23:31:16.262Z,14.00
2018-08-31T23:33:44.944Z,13.90
2018-08-31T23:36:13.515Z,13.80
2018-08-31T23:38:42.115Z,13.80
2018-08-31T23:41:10.775Z,13.80
2018-08-31T23:43:39.283Z,13.80
2018-08-31T23:46:07.928Z,13.70
2018-08-31T23:48:36.425Z,13.70
2018-08-31T23:51:04.942Z,13.70
2018-08-31T23:53:33.487Z,13.70
2018-08-31T23:56:01.984Z,13.60
2018-08-31T23:58:30.509Z,13.60
